Keum Yang Family — DSNO8 — position and weather

sailwx.info

Track history (hours):
 
Tides and Currents Weather Stations Pressure Air Temp Water Temp Dewpoint Dewpoint Depression Visibility Wind Speed Wind Dir Waves Ship Positions

Keum Yang Family

Last reported at 2016-Aug-26 17:26 UTC. Time now 2016-Aug-27 18:48 UTC.
Position N 34°37' E 135°01'.

Length 95 m; draft 3.9 m.

Type: Cargo ship. MMSI: 441416000.

Date/timePositionNaut miles runAvg speedWind from/ knotsBaromVisibWave heightAir tempDewpointWater temp
2016-Aug-26 17:26N 34°37' E 135°01'7 8.5
2016-Aug-26 16:33N 34°30' E 135°04'1010.3
2016-Aug-26 15:33N 34°20' E 135°01'10 9.7
2016-Aug-26 14:33N 34°10' E 134°59'228 8.1
2016-Aug-25 10:22N 34°58' E 139°30'1310.2
2016-Aug-25 09:07N 35°06' E 139°42'610.7
2016-Aug-25 08:33N 35°11' E 139°46'10 9.9
2016-Aug-25 07:33N 35°21' E 139°42'9 9.0
2016-Aug-25 06:33N 35°29' E 139°46'0 0.1
2016-Aug-25 04:31N 35°30' E 139°46'0 0.0
2016-Aug-25 03:33N 35°30' E 139°46'0 0.0
2016-Aug-25 02:34N 35°30' E 139°46'0 0.0
2016-Aug-25 01:34N 35°30' E 139°46'0 0.0
2016-Aug-25 00:33N 35°30' E 139°46'0 0.0
2016-Aug-24 23:31N 35°30' E 139°46'0 0.0
2016-Aug-24 22:34N 35°30' E 139°46'0 0.1
2016-Aug-24 21:33N 35°30' E 139°46'2 2.4
2016-Aug-24 20:34N 35°28' E 139°48'0 0.1
2016-Aug-24 19:34N 35°28' E 139°48'0 0.0
2016-Aug-24 18:33N 35°28' E 139°48'0 0.0
2016-Aug-24 17:33N 35°28' E 139°48'0 0.0
2016-Aug-24 16:34N 35°28' E 139°48'0 0.1
2016-Aug-24 15:34N 35°28' E 139°48'0 0.0
2016-Aug-24 14:34N 35°28' E 139°48'0 0.0
2016-Aug-24 13:21N 35°28' E 139°48'0 0.0
2016-Aug-24 12:31N 35°28' E 139°48'0 0.1
2016-Aug-24 11:33N 35°28' E 139°48'0 0.0
2016-Aug-24 10:27N 35°28' E 139°48'0 0.0
2016-Aug-24 09:28N 35°28' E 139°48'0 0.0
2016-Aug-24 08:34N 35°28' E 139°48'0 0.1
2016-Aug-24 07:34N 35°28' E 139°48'0 0.0
2016-Aug-24 06:34N 35°28' E 139°48'0 0.0
2016-Aug-24 04:33N 35°28' E 139°48'0 0.0
2016-Aug-24 03:34N 35°28' E 139°48'0 0.0
2016-Aug-24 02:34N 35°28' E 139°48'0 0.0
2016-Aug-24 01:31N 35°28' E 139°48'0 0.0
2016-Aug-24 00:30N 35°28' E 139°48'0 0.1
2016-Aug-23 23:33N 35°28' E 139°48'0 0.0
2016-Aug-23 22:33N 35°28' E 139°48'0 0.0
2016-Aug-23 21:33N 35°28' E 139°48'0 0.0
2016-Aug-23 20:34N 35°28' E 139°48'0 0.0
2016-Aug-23 19:31N 35°28' E 139°48'0 0.0
2016-Aug-23 18:33N 35°28' E 139°48'0 0.0
2016-Aug-23 17:33N 35°28' E 139°48'0 0.0
2016-Aug-23 16:31N 35°28' E 139°48'0 0.1
2016-Aug-23 15:34N 35°28' E 139°48'0 0.0
2016-Aug-23 14:34N 35°28' E 139°48'0 0.0
2016-Aug-23 13:31N 35°28' E 139°48'0 0.0
2016-Aug-23 12:34N 35°28' E 139°48'0 0.1
2016-Aug-23 11:34N 35°28' E 139°48'0 0.1
2016-Aug-23 10:34N 35°29' E 139°48'0 0.0
2016-Aug-23 09:34N 35°28' E 139°48'0 0.0
2016-Aug-23 08:33N 35°29' E 139°48'0 0.0
2016-Aug-23 07:34N 35°28' E 139°48'0 0.0
2016-Aug-23 06:31N 35°28' E 139°48'0 0.0
2016-Aug-23 05:30N 35°29' E 139°48'0 0.0
2016-Aug-23 04:34N 35°28' E 139°48'0 0.0
2016-Aug-23 03:31N 35°28' E 139°48'0 0.1
2016-Aug-23 02:34N 35°29' E 139°48'0 0.1
2016-Aug-23 01:33N 35°28' E 139°48'1 0.5
2016-Aug-23 00:34N 35°28' E 139°48'0 0.0
2016-Aug-22 23:33N 35°28' E 139°48'0 0.0
2016-Aug-22 22:34N 35°28' E 139°48'0 0.0
2016-Aug-22 21:28N 35°28' E 139°48'0 0.0
2016-Aug-22 20:33N 35°28' E 139°48'0 0.1
2016-Aug-22 19:34N 35°28' E 139°48'0 0.1
2016-Aug-22 18:33N 35°28' E 139°48'0 0.1
2016-Aug-22 17:34N 35°28' E 139°48'0 0.0
2016-Aug-22 16:34N 35°28' E 139°48'0 0.0
2016-Aug-22 15:34N 35°28' E 139°48'0 0.0
2016-Aug-22 14:33N 35°28' E 139°48'0 0.1
2016-Aug-22 13:28N 35°28' E 139°48'0 0.1
2016-Aug-22 12:34N 35°28' E 139°48'0 0.0
2016-Aug-22 11:34N 35°28' E 139°48'0 0.0
2016-Aug-22 10:23N 35°28' E 139°48'0 0.0
2016-Aug-22 09:30N 35°28' E 139°48'0 0.1
2016-Aug-22 08:33N 35°28' E 139°48'0 0.1
2016-Aug-22 07:26N 35°28' E 139°48'0 0.0
2016-Aug-22 06:33N 35°28' E 139°48'0 0.1
2016-Aug-22 05:34N 35°28' E 139°48'0 0.2
2016-Aug-22 04:33N 35°28' E 139°48'0 0.0
2016-Aug-22 03:33N 35°28' E 139°48'0 0.0
2016-Aug-22 02:33N 35°28' E 139°48'0 0.0
2016-Aug-22 01:33N 35°28' E 139°48'0 0.0
2016-Aug-22 00:32N 35°28' E 139°48'0 0.0
2016-Aug-21 23:29N 35°28' E 139°48'0 0.0
2016-Aug-21 22:33N 35°28' E 139°48'0 0.0
2016-Aug-21 21:24N 35°28' E 139°48'0 0.1
2016-Aug-21 20:32N 35°28' E 139°48'0 0.1
2016-Aug-21 19:33N 35°28' E 139°48'0 0.0
2016-Aug-21 18:31N 35°28' E 139°48'0 0.0
2016-Aug-21 17:33N 35°28' E 139°48'0 0.1
2016-Aug-21 16:33N 35°28' E 139°48'0 0.0
2016-Aug-21 15:32N 35°28' E 139°48'0 0.0
2016-Aug-21 14:28N 35°28' E 139°48'0 0.0
2016-Aug-21 13:32N 35°28' E 139°48'0 0.1
2016-Aug-21 12:33N 35°28' E 139°48'2 2.2
2016-Aug-21 11:32N 35°30' E 139°46'0 0.0
2016-Aug-21 10:29N 35°30' E 139°46'0 0.0
2016-Aug-21 09:32N 35°30' E 139°46'0 0.0
2016-Aug-21 08:23N 35°30' E 139°46'0 0.0
2016-Aug-21 07:32N 35°30' E 139°46'0 0.0
2016-Aug-21 06:26N 35°30' E 139°46'0 0.0
2016-Aug-21 05:32N 35°30' E 139°46'0 0.0
2016-Aug-21 04:32N 35°30' E 139°46'0 0.0
2016-Aug-21 03:32N 35°30' E 139°46'0 0.0
2016-Aug-21 02:32N 35°30' E 139°46'0 0.0
2016-Aug-21 01:32N 35°30' E 139°46'0 0.0
2016-Aug-21 00:32N 35°30' E 139°46'0 0.0
2016-Aug-20 23:29N 35°30' E 139°46'0 0.0
2016-Aug-20 22:29N 35°30' E 139°46'0 0.0
2016-Aug-20 21:32N 35°30' E 139°46'0 0.0
2016-Aug-20 20:32N 35°30' E 139°46'0 0.0
2016-Aug-20 19:32N 35°30' E 139°46'0 0.0
2016-Aug-20 18:29N 35°30' E 139°46'0 0.0
2016-Aug-20 17:32N 35°30' E 139°46'0 0.0
2016-Aug-20 16:32N 35°30' E 139°46'0 0.0
2016-Aug-20 15:32N 35°30' E 139°46'0 0.0
2016-Aug-20 14:32N 35°30' E 139°46'0 0.0
2016-Aug-20 13:32N 35°30' E 139°46'0 0.0
2016-Aug-20 12:32N 35°30' E 139°46'0 0.0
2016-Aug-20 11:32N 35°30' E 139°46'0 0.0
2016-Aug-20 10:29N 35°30' E 139°46'0 0.0
2016-Aug-20 09:32N 35°30' E 139°46'0 0.0
2016-Aug-20 08:32N 35°30' E 139°46'0 0.0
2016-Aug-20 07:32N 35°30' E 139°46'0 0.0
2016-Aug-20 06:32N 35°30' E 139°46'0 0.0
2016-Aug-20 05:23N 35°30' E 139°46'0 0.0
2016-Aug-20 04:32N 35°30' E 139°46'0 0.0
2016-Aug-20 03:32N 35°30' E 139°46'0 0.0
2016-Aug-20 02:32N 35°30' E 139°46'0 0.0
2016-Aug-20 01:32N 35°30' E 139°46'0 0.0
2016-Aug-20 00:29N 35°30' E 139°46'0 0.0
2016-Aug-19 23:32N 35°30' E 139°46'0 0.0
2016-Aug-19 22:32N 35°30' E 139°46'0 0.0
2016-Aug-19 21:32N 35°30' E 139°46'0 0.0
2016-Aug-19 20:32N 35°30' E 139°46'0 0.0
2016-Aug-19 19:32N 35°30' E 139°46'0 0.0
2016-Aug-19 18:29N 35°30' E 139°46'0 0.0
2016-Aug-19 17:32N 35°30' E 139°46'0 0.0
2016-Aug-19 16:29N 35°30' E 139°46'0 0.0
2016-Aug-19 15:32N 35°30' E 139°46'0 0.0
2016-Aug-19 14:32N 35°30' E 139°46'0 0.0
2016-Aug-19 13:32N 35°30' E 139°46'0 0.0
2016-Aug-19 12:32N 35°30' E 139°46'0 0.0
2016-Aug-19 11:32N 35°30' E 139°46'0 0.0
2016-Aug-19 10:32N 35°30' E 139°46'0 0.0
2016-Aug-19 09:32N 35°30' E 139°46'0 0.0
2016-Aug-19 08:32N 35°30' E 139°46'0 0.0
2016-Aug-19 07:29N 35°30' E 139°46'0 0.0
2016-Aug-19 06:32N 35°30' E 139°46'0 0.0
2016-Aug-19 05:32N 35°30' E 139°46'0 0.0
2016-Aug-19 04:29N 35°30' E 139°46'0 0.0
2016-Aug-19 03:32N 35°30' E 139°46'0 0.0
2016-Aug-19 02:32N 35°30' E 139°46'0 0.0
2016-Aug-19 01:32N 35°30' E 139°46'0 0.0
2016-Aug-19 00:32N 35°30' E 139°46'0 0.0
2016-Aug-18 23:29N 35°30' E 139°46'0 0.0
2016-Aug-18 22:33N 35°30' E 139°46'2 2.1
2016-Aug-18 21:33N 35°29' E 139°48'0 0.0
2016-Aug-18 20:33N 35°29' E 139°48'0 0.1
2016-Aug-18 19:32N 35°29' E 139°48'0 0.0
2016-Aug-18 18:32N 35°29' E 139°48'0 0.0
2016-Aug-18 17:32N 35°29' E 139°48'0 0.0
2016-Aug-18 16:32N 35°29' E 139°48'0 0.0
2016-Aug-18 15:32N 35°29' E 139°48'0 0.0
2016-Aug-18 14:32N 35°29' E 139°48'0 0.0
2016-Aug-18 13:32N 35°29' E 139°48'0 0.0
2016-Aug-18 12:32N 35°29' E 139°48'0 0.0
2016-Aug-18 11:29N 35°29' E 139°48'0 0.0
2016-Aug-18 10:32N 35°29' E 139°48'0 0.0
2016-Aug-18 09:32N 35°29' E 139°48'0 0.1
2016-Aug-18 08:32N 35°29' E 139°48'0 0.0
2016-Aug-18 07:32N 35°29' E 139°48'0 0.0
2016-Aug-18 06:32N 35°29' E 139°48'0 0.0
2016-Aug-18 05:32N 35°29' E 139°48'0 0.0
2016-Aug-18 04:29N 35°29' E 139°48'1 0.6
2016-Aug-18 03:33N 35°29' E 139°49'8 7.9
2016-Aug-18 02:34N 35°37' E 139°49'1 1.0
2016-Aug-18 01:33N 35°37' E 139°47'0 0.0
2016-Aug-18 00:29N 35°37' E 139°47'0 0.0
2016-Aug-17 23:33N 35°37' E 139°47'1 0.6
2016-Aug-17 22:33N 35°37' E 139°48'3 3.3
2016-Aug-17 21:34N 35°34' E 139°50'0 0.0
2016-Aug-17 20:33N 35°34' E 139°50'0 0.0
2016-Aug-17 19:26N 35°34' E 139°50'0 0.0
2016-Aug-17 18:32N 35°34' E 139°50'0 0.0
2016-Aug-17 17:32N 35°34' E 139°50'0 0.0
2016-Aug-17 16:32N 35°34' E 139°50'0 0.0
2016-Aug-17 15:32N 35°34' E 139°50'0 0.0
2016-Aug-17 14:32N 35°34' E 139°50'0 0.0
2016-Aug-17 13:32N 35°34' E 139°50'0 0.0
2016-Aug-17 12:32N 35°34' E 139°50'0 0.0
2016-Aug-17 11:32N 35°34' E 139°50'0 0.1
2016-Aug-17 10:33N 35°34' E 139°50'0 0.0
2016-Aug-17 09:33N 35°34' E 139°50'0 0.0
2016-Aug-17 08:33N 35°34' E 139°50'0 0.0
2016-Aug-17 07:28N 35°34' E 139°50'0 0.0
2016-Aug-17 06:30N 35°34' E 139°50'0 0.0
2016-Aug-17 05:33N 35°34' E 139°50'0 0.0
2016-Aug-17 04:25N 35°34' E 139°50'0 0.0
2016-Aug-17 03:31N 35°34' E 139°50'0 0.0
2016-Aug-17 02:31N 35°34' E 139°50'0 0.1
2016-Aug-17 01:31N 35°34' E 139°50'0 0.0
2016-Aug-17 00:31N 35°34' E 139°50'0 0.0
2016-Aug-16 23:31N 35°34' E 139°50'0 0.0
2016-Aug-16 22:33N 35°34' E 139°50'0 0.0
2016-Aug-16 21:33N 35°34' E 139°50'0 0.0
2016-Aug-16 20:32N 35°34' E 139°50'0 0.0
2016-Aug-16 19:30N 35°34' E 139°50'0 0.0
2016-Aug-16 18:33N 35°34' E 139°50'  
Track history (hours):
 
Tides and Currents Weather Stations Pressure Air Temp Water Temp Dewpoint Dewpoint Depression Visibility Wind Speed Wind Dir Waves Ship Positions

Keum Yang Family

Last reported at 2016-Aug-26 17:26 UTC. Time now 2016-Aug-27 18:48 UTC.
Position N 34°37' E 135°01'.

Length 95 m; draft 3.9 m.

Type: Cargo ship. MMSI: 441416000.

Date/timePositionNaut miles runAvg speedWind from/ knotsBaromVisibWave heightAir tempDewpointWater temp
2016-Aug-26 17:26N 34°37' E 135°01'7 8.5
2016-Aug-26 16:33N 34°30' E 135°04'1010.3
2016-Aug-26 15:33N 34°20' E 135°01'10 9.7
2016-Aug-26 14:33N 34°10' E 134°59'228 8.1
2016-Aug-25 10:22N 34°58' E 139°30'1310.2
2016-Aug-25 09:07N 35°06' E 139°42'610.7
2016-Aug-25 08:33N 35°11' E 139°46'10 9.9
2016-Aug-25 07:33N 35°21' E 139°42'9 9.0
2016-Aug-25 06:33N 35°29' E 139°46'0 0.1
2016-Aug-25 04:31N 35°30' E 139°46'0 0.0
2016-Aug-25 03:33N 35°30' E 139°46'0 0.0
2016-Aug-25 02:34N 35°30' E 139°46'0 0.0
2016-Aug-25 01:34N 35°30' E 139°46'0 0.0
2016-Aug-25 00:33N 35°30' E 139°46'0 0.0
2016-Aug-24 23:31N 35°30' E 139°46'0 0.0
2016-Aug-24 22:34N 35°30' E 139°46'0 0.1
2016-Aug-24 21:33N 35°30' E 139°46'2 2.4
2016-Aug-24 20:34N 35°28' E 139°48'0 0.1
2016-Aug-24 19:34N 35°28' E 139°48'0 0.0
2016-Aug-24 18:33N 35°28' E 139°48'0 0.0
2016-Aug-24 17:33N 35°28' E 139°48'0 0.0
2016-Aug-24 16:34N 35°28' E 139°48'0 0.1
2016-Aug-24 15:34N 35°28' E 139°48'0 0.0
2016-Aug-24 14:34N 35°28' E 139°48'0 0.0
2016-Aug-24 13:21N 35°28' E 139°48'0 0.0
2016-Aug-24 12:31N 35°28' E 139°48'0 0.1
2016-Aug-24 11:33N 35°28' E 139°48'0 0.0
2016-Aug-24 10:27N 35°28' E 139°48'0 0.0
2016-Aug-24 09:28N 35°28' E 139°48'0 0.0
2016-Aug-24 08:34N 35°28' E 139°48'0 0.1
2016-Aug-24 07:34N 35°28' E 139°48'0 0.0
2016-Aug-24 06:34N 35°28' E 139°48'0 0.0
2016-Aug-24 04:33N 35°28' E 139°48'0 0.0
2016-Aug-24 03:34N 35°28' E 139°48'0 0.0
2016-Aug-24 02:34N 35°28' E 139°48'0 0.0
2016-Aug-24 01:31N 35°28' E 139°48'0 0.0
2016-Aug-24 00:30N 35°28' E 139°48'0 0.1
2016-Aug-23 23:33N 35°28' E 139°48'0 0.0
2016-Aug-23 22:33N 35°28' E 139°48'0 0.0
2016-Aug-23 21:33N 35°28' E 139°48'0 0.0
2016-Aug-23 20:34N 35°28' E 139°48'0 0.0
2016-Aug-23 19:31N 35°28' E 139°48'0 0.0
2016-Aug-23 18:33N 35°28' E 139°48'0 0.0
2016-Aug-23 17:33N 35°28' E 139°48'0 0.0
2016-Aug-23 16:31N 35°28' E 139°48'0 0.1
2016-Aug-23 15:34N 35°28' E 139°48'0 0.0
2016-Aug-23 14:34N 35°28' E 139°48'0 0.0
2016-Aug-23 13:31N 35°28' E 139°48'0 0.0
2016-Aug-23 12:34N 35°28' E 139°48'0 0.1
2016-Aug-23 11:34N 35°28' E 139°48'0 0.1
2016-Aug-23 10:34N 35°29' E 139°48'0 0.0
2016-Aug-23 09:34N 35°28' E 139°48'0 0.0
2016-Aug-23 08:33N 35°29' E 139°48'0 0.0
2016-Aug-23 07:34N 35°28' E 139°48'0 0.0
2016-Aug-23 06:31N 35°28' E 139°48'0 0.0
2016-Aug-23 05:30N 35°29' E 139°48'0 0.0
2016-Aug-23 04:34N 35°28' E 139°48'0 0.0
2016-Aug-23 03:31N 35°28' E 139°48'0 0.1
2016-Aug-23 02:34N 35°29' E 139°48'0 0.1
2016-Aug-23 01:33N 35°28' E 139°48'1 0.5
2016-Aug-23 00:34N 35°28' E 139°48'0 0.0
2016-Aug-22 23:33N 35°28' E 139°48'0 0.0
2016-Aug-22 22:34N 35°28' E 139°48'0 0.0
2016-Aug-22 21:28N 35°28' E 139°48'0 0.0
2016-Aug-22 20:33N 35°28' E 139°48'0 0.1
2016-Aug-22 19:34N 35°28' E 139°48'0 0.1
2016-Aug-22 18:33N 35°28' E 139°48'0 0.1
2016-Aug-22 17:34N 35°28' E 139°48'0 0.0
2016-Aug-22 16:34N 35°28' E 139°48'0 0.0
2016-Aug-22 15:34N 35°28' E 139°48'0 0.0
2016-Aug-22 14:33N 35°28' E 139°48'0 0.1
2016-Aug-22 13:28N 35°28' E 139°48'0 0.1
2016-Aug-22 12:34N 35°28' E 139°48'0 0.0
2016-Aug-22 11:34N 35°28' E 139°48'0 0.0
2016-Aug-22 10:23N 35°28' E 139°48'0 0.0
2016-Aug-22 09:30N 35°28' E 139°48'0 0.1
2016-Aug-22 08:33N 35°28' E 139°48'0 0.1
2016-Aug-22 07:26N 35°28' E 139°48'0 0.0
2016-Aug-22 06:33N 35°28' E 139°48'0 0.1
2016-Aug-22 05:34N 35°28' E 139°48'0 0.2
2016-Aug-22 04:33N 35°28' E 139°48'0 0.0
2016-Aug-22 03:33N 35°28' E 139°48'0 0.0
2016-Aug-22 02:33N 35°28' E 139°48'0 0.0
2016-Aug-22 01:33N 35°28' E 139°48'0 0.0
2016-Aug-22 00:32N 35°28' E 139°48'0 0.0
2016-Aug-21 23:29N 35°28' E 139°48'0 0.0
2016-Aug-21 22:33N 35°28' E 139°48'0 0.0
2016-Aug-21 21:24N 35°28' E 139°48'0 0.1
2016-Aug-21 20:32N 35°28' E 139°48'0 0.1
2016-Aug-21 19:33N 35°28' E 139°48'0 0.0
2016-Aug-21 18:31N 35°28' E 139°48'0 0.0
2016-Aug-21 17:33N 35°28' E 139°48'0 0.1
2016-Aug-21 16:33N 35°28' E 139°48'0 0.0
2016-Aug-21 15:32N 35°28' E 139°48'0 0.0
2016-Aug-21 14:28N 35°28' E 139°48'0 0.0
2016-Aug-21 13:32N 35°28' E 139°48'0 0.1
2016-Aug-21 12:33N 35°28' E 139°48'2 2.2
2016-Aug-21 11:32N 35°30' E 139°46'0 0.0
2016-Aug-21 10:29N 35°30' E 139°46'0 0.0
2016-Aug-21 09:32N 35°30' E 139°46'0 0.0
2016-Aug-21 08:23N 35°30' E 139°46'0 0.0
2016-Aug-21 07:32N 35°30' E 139°46'0 0.0
2016-Aug-21 06:26N 35°30' E 139°46'0 0.0
2016-Aug-21 05:32N 35°30' E 139°46'0 0.0
2016-Aug-21 04:32N 35°30' E 139°46'0 0.0
2016-Aug-21 03:32N 35°30' E 139°46'0 0.0
2016-Aug-21 02:32N 35°30' E 139°46'0 0.0
2016-Aug-21 01:32N 35°30' E 139°46'0 0.0
2016-Aug-21 00:32N 35°30' E 139°46'0 0.0
2016-Aug-20 23:29N 35°30' E 139°46'0 0.0
2016-Aug-20 22:29N 35°30' E 139°46'0 0.0
2016-Aug-20 21:32N 35°30' E 139°46'0 0.0
2016-Aug-20 20:32N 35°30' E 139°46'0 0.0
2016-Aug-20 19:32N 35°30' E 139°46'0 0.0
2016-Aug-20 18:29N 35°30' E 139°46'0 0.0
2016-Aug-20 17:32N 35°30' E 139°46'0 0.0
2016-Aug-20 16:32N 35°30' E 139°46'0 0.0
2016-Aug-20 15:32N 35°30' E 139°46'0 0.0
2016-Aug-20 14:32N 35°30' E 139°46'0 0.0
2016-Aug-20 13:32N 35°30' E 139°46'0 0.0
2016-Aug-20 12:32N 35°30' E 139°46'0 0.0
2016-Aug-20 11:32N 35°30' E 139°46'0 0.0
2016-Aug-20 10:29N 35°30' E 139°46'0 0.0
2016-Aug-20 09:32N 35°30' E 139°46'0 0.0
2016-Aug-20 08:32N 35°30' E 139°46'0 0.0
2016-Aug-20 07:32N 35°30' E 139°46'0 0.0
2016-Aug-20 06:32N 35°30' E 139°46'0 0.0
2016-Aug-20 05:23N 35°30' E 139°46'0 0.0
2016-Aug-20 04:32N 35°30' E 139°46'0 0.0
2016-Aug-20 03:32N 35°30' E 139°46'0 0.0
2016-Aug-20 02:32N 35°30' E 139°46'0 0.0
2016-Aug-20 01:32N 35°30' E 139°46'0 0.0
2016-Aug-20 00:29N 35°30' E 139°46'0 0.0
2016-Aug-19 23:32N 35°30' E 139°46'0 0.0
2016-Aug-19 22:32N 35°30' E 139°46'0 0.0
2016-Aug-19 21:32N 35°30' E 139°46'0 0.0
2016-Aug-19 20:32N 35°30' E 139°46'0 0.0
2016-Aug-19 19:32N 35°30' E 139°46'0 0.0
2016-Aug-19 18:29N 35°30' E 139°46'0 0.0
2016-Aug-19 17:32N 35°30' E 139°46'0 0.0
2016-Aug-19 16:29N 35°30' E 139°46'0 0.0
2016-Aug-19 15:32N 35°30' E 139°46'0 0.0
2016-Aug-19 14:32N 35°30' E 139°46'0 0.0
2016-Aug-19 13:32N 35°30' E 139°46'0 0.0
2016-Aug-19 12:32N 35°30' E 139°46'0 0.0
2016-Aug-19 11:32N 35°30' E 139°46'0 0.0
2016-Aug-19 10:32N 35°30' E 139°46'0 0.0
2016-Aug-19 09:32N 35°30' E 139°46'0 0.0
2016-Aug-19 08:32N 35°30' E 139°46'0 0.0
2016-Aug-19 07:29N 35°30' E 139°46'0 0.0
2016-Aug-19 06:32N 35°30' E 139°46'0 0.0
2016-Aug-19 05:32N 35°30' E 139°46'0 0.0
2016-Aug-19 04:29N 35°30' E 139°46'0 0.0
2016-Aug-19 03:32N 35°30' E 139°46'0 0.0
2016-Aug-19 02:32N 35°30' E 139°46'0 0.0
2016-Aug-19 01:32N 35°30' E 139°46'0 0.0
2016-Aug-19 00:32N 35°30' E 139°46'0 0.0
2016-Aug-18 23:29N 35°30' E 139°46'0 0.0
2016-Aug-18 22:33N 35°30' E 139°46'2 2.1
2016-Aug-18 21:33N 35°29' E 139°48'0 0.0
2016-Aug-18 20:33N 35°29' E 139°48'0 0.1
2016-Aug-18 19:32N 35°29' E 139°48'0 0.0
2016-Aug-18 18:32N 35°29' E 139°48'0 0.0
2016-Aug-18 17:32N 35°29' E 139°48'0 0.0
2016-Aug-18 16:32N 35°29' E 139°48'0 0.0
2016-Aug-18 15:32N 35°29' E 139°48'0 0.0
2016-Aug-18 14:32N 35°29' E 139°48'0 0.0
2016-Aug-18 13:32N 35°29' E 139°48'0 0.0
2016-Aug-18 12:32N 35°29' E 139°48'0 0.0
2016-Aug-18 11:29N 35°29' E 139°48'0 0.0
2016-Aug-18 10:32N 35°29' E 139°48'0 0.0
2016-Aug-18 09:32N 35°29' E 139°48'0 0.1
2016-Aug-18 08:32N 35°29' E 139°48'0 0.0
2016-Aug-18 07:32N 35°29' E 139°48'0 0.0
2016-Aug-18 06:32N 35°29' E 139°48'0 0.0
2016-Aug-18 05:32N 35°29' E 139°48'0 0.0
2016-Aug-18 04:29N 35°29' E 139°48'1 0.6
2016-Aug-18 03:33N 35°29' E 139°49'8 7.9
2016-Aug-18 02:34N 35°37' E 139°49'1 1.0
2016-Aug-18 01:33N 35°37' E 139°47'0 0.0
2016-Aug-18 00:29N 35°37' E 139°47'0 0.0
2016-Aug-17 23:33N 35°37' E 139°47'1 0.6
2016-Aug-17 22:33N 35°37' E 139°48'3 3.3
2016-Aug-17 21:34N 35°34' E 139°50'0 0.0
2016-Aug-17 20:33N 35°34' E 139°50'0 0.0
2016-Aug-17 19:26N 35°34' E 139°50'0 0.0
2016-Aug-17 18:32N 35°34' E 139°50'0 0.0
2016-Aug-17 17:32N 35°34' E 139°50'0 0.0
2016-Aug-17 16:32N 35°34' E 139°50'0 0.0
2016-Aug-17 15:32N 35°34' E 139°50'0 0.0
2016-Aug-17 14:32N 35°34' E 139°50'0 0.0
2016-Aug-17 13:32N 35°34' E 139°50'0 0.0
2016-Aug-17 12:32N 35°34' E 139°50'0 0.0
2016-Aug-17 11:32N 35°34' E 139°50'0 0.1
2016-Aug-17 10:33N 35°34' E 139°50'0 0.0
2016-Aug-17 09:33N 35°34' E 139°50'0 0.0
2016-Aug-17 08:33N 35°34' E 139°50'0 0.0
2016-Aug-17 07:28N 35°34' E 139°50'0 0.0
2016-Aug-17 06:30N 35°34' E 139°50'0 0.0
2016-Aug-17 05:33N 35°34' E 139°50'0 0.0
2016-Aug-17 04:25N 35°34' E 139°50'0 0.0
2016-Aug-17 03:31N 35°34' E 139°50'0 0.0
2016-Aug-17 02:31N 35°34' E 139°50'0 0.1
2016-Aug-17 01:31N 35°34' E 139°50'0 0.0
2016-Aug-17 00:31N 35°34' E 139°50'0 0.0
2016-Aug-16 23:31N 35°34' E 139°50'0 0.0
2016-Aug-16 22:33N 35°34' E 139°50'0 0.0
2016-Aug-16 21:33N 35°34' E 139°50'0 0.0
2016-Aug-16 20:32N 35°34' E 139°50'0 0.0
2016-Aug-16 19:30N 35°34' E 139°50'0 0.0
2016-Aug-16 18:33N 35°34' E 139°50'  

Dump ship's entire track history